This is the latest recevied weather packets stored in our database for station/object IZ6EGX-13. If no packets are shown the sender has not sent any weather packets the latest 10 day(s).
| Time | Temp. | Humidity | Pressure | Rain* | Wind** | Luminosity | Snow |
|---|---|---|---|---|---|---|---|
| 1777626383 | 14.44° C | 46% | 1025.5 hPa | 0 mm | - | - | - |
| 1777625783 | 14.44° C | 46% | 1025.5 hPa | 0 mm | - | - | - |
| 1777625183 | 14.44° C | 45% | 1025.5 hPa | 0 mm | - | - | - |
| 1777624583 | 14.44° C | 46% | 1025.5 hPa | 0 mm | - | - | - |
| 1777623983 | 14.44° C | 46% | 1025.5 hPa | 0 mm | - | - | - |
| 1777623383 | 13.89° C | 47% | 1025.4 hPa | 0 mm | - | - | - |
| 1777622783 | 13.89° C | 46% | 1025.3 hPa | 0 mm | - | - | - |
| 1777622183 | 14.44° C | 46% | 1025.3 hPa | 0 mm | - | - | - |
| 1777621583 | 14.44° C | 46% | 1025.2 hPa | 0 mm | - | - | - |
| 1777620983 | 13.89° C | 55% | 1025.3 hPa | 0 mm | - | - | - |
| 1777620383 | 13.33° C | 57% | 1025.3 hPa | 0 mm | - | - | - |
| 1777619783 | 12.78° C | 59% | 1025.5 hPa | 0 mm | - | - | - |
| 1777619183 | 13.33° C | 58% | 1025.4 hPa | 0 mm | - | - | - |
| 1777618583 | 12.78° C | 59% | 1025.4 hPa | 0 mm | - | - | - |
| 1777617983 | 12.78° C | 59% | 1025.4 hPa | 0 mm | - | - | - |
| 1777617383 | 12.78° C | 60% | 1025.3 hPa | 0 mm | - | - | - |
| 1777616783 | 12.78° C | 58% | 1025.1 hPa | 0 mm | - | - | - |
| 1777616183 | 12.78° C | 59% | 1025.1 hPa | 0 mm | - | - | - |
| 1777615583 | 12.78° C | 59% | 1025 hPa | 0 mm | - | - | - |
| 1777614983 | 12.78° C | 59% | 1025 hPa | 0 mm | - | - | - |
| 1777614383 | 12.22° C | 61% | 1025.1 hPa | 0 mm | - | - | - |
| 1777613783 | 12.22° C | 62% | 1025.1 hPa | 0 mm | - | - | - |
| 1777613183 | 11.67° C | 62% | 1025.1 hPa | 0 mm | - | - | - |
| 1777612583 | 11.11° C | 64% | 1025.1 hPa | 0 mm | - | - | - |
| 1777611983 | 11.11° C | 65% | 1025.1 hPa | 0 mm | - | - | - |
* Rain latest hour (hover to see other rain measurements)
** Current wind speed in m/s (hover to see current wind gust speed)